Time;durP1;ratioP1;P1;durP2;ratioP2;P2;SDS_P1;SDS_P2;PMS_P1;PMS_P2;Temp;Humidity;BMP_temperature;BMP_pressure;BME280_temperature;BME280_humidity;BME280_pressure;Samples;Min_cycle;Max_cycle;Signal;HPM_P1;HPM_P2
2021/08/29 00:01:07;;;;;;;7.15;2.20;;;16.00;99.90;;;;;;5052107;28;20037;-70
2021/08/29 00:03:33;;;;;;;3.92;2.08;;;16.00;99.90;;;;;;5051766;28;20108;-71
2021/08/29 00:05:59;;;;;;;6.93;2.60;;;16.00;99.90;;;;;;5051425;28;20079;-70
2021/08/29 00:08:24;;;;;;;6.25;3.00;;;15.90;99.90;;;;;;5052087;28;20033;-70
2021/08/29 00:10:50;;;;;;;12.63;3.35;;;16.00;99.90;;;;;;5052161;28;20025;-71
2021/08/29 00:13:16;;;;;;;6.97;2.47;;;16.00;99.90;;;;;;5052282;28;20021;-69
2021/08/29 00:15:41;;;;;;;7.88;2.13;;;16.00;99.90;;;;;;5051403;28;20045;-70
2021/08/29 00:18:07;;;;;;;4.18;2.70;;;16.00;99.90;;;;;;5051455;28;20033;-70
2021/08/29 00:20:32;;;;;;;11.52;2.40;;;16.00;99.90;;;;;;5052408;28;20432;-71
2021/08/29 00:22:58;;;;;;;6.40;2.75;;;16.00;99.90;;;;;;5051728;28;20025;-73
2021/08/29 00:25:24;;;;;;;5.80;2.75;;;16.10;99.90;;;;;;5050673;28;20557;-69
2021/08/29 00:27:49;;;;;;;8.10;3.33;;;16.10;99.90;;;;;;5050241;28;20358;-71
2021/08/29 00:30:15;;;;;;;11.65;2.65;;;16.10;99.90;;;;;;5050695;28;20048;-69
2021/08/29 00:32:41;;;;;;;8.40;2.47;;;16.20;99.90;;;;;;5046258;28;20448;-69
2021/08/29 00:35:07;;;;;;;5.18;2.30;;;16.20;99.90;;;;;;5042911;28;20381;-70
2021/08/29 00:37:32;;;;;;;13.88;3.25;;;16.20;99.90;;;;;;5050715;28;20385;-71
2021/08/29 00:40:00;;;;;;;6.85;3.75;;;16.20;99.90;;;;;;5050031;28;20033;-69
2021/08/29 00:42:25;;;;;;;9.60;2.80;;;16.20;99.90;;;;;;5040750;28;20480;-69
2021/08/29 00:44:51;;;;;;;6.03;2.83;;;16.20;99.90;;;;;;5051768;28;20021;-71
2021/08/29 00:47:16;;;;;;;5.28;2.70;;;16.20;99.90;;;;;;5049557;28;20029;-70
2021/08/29 00:49:42;;;;;;;7.75;2.70;;;16.10;99.90;;;;;;5050587;28;20029;-70
2021/08/29 00:52:08;;;;;;;9.27;2.38;;;16.10;99.90;;;;;;5046517;28;20420;-69
2021/08/29 00:54:36;;;;;;;6.50;2.58;;;16.00;99.90;;;;;;5050490;28;20039;-70
2021/08/29 00:57:03;;;;;;;8.43;3.35;;;16.10;99.90;;;;;;5051467;28;20021;-70
2021/08/29 00:59:30;;;;;;;;;;;16.10;99.90;;;;;;5050784;28;20033;-70
2021/08/29 01:02:02;;;;;;;9.40;2.95;;;16.10;99.90;;;;;;5051037;28;19915;-68
2021/08/29 01:04:37;;;;;;;5.57;1.85;;;16.00;99.90;;;;;;5051686;28;20029;-69
2021/08/29 01:07:05;;;;;;;10.25;2.60;;;16.10;99.90;;;;;;5049752;28;20218;-69
2021/08/29 01:09:33;;;;;;;10.05;2.65;;;16.10;99.90;;;;;;5049481;28;20013;-69
2021/08/29 01:11:59;;;;;;;6.80;2.72;;;16.10;99.90;;;;;;5051499;28;20032;-68
2021/08/29 01:14:28;;;;;;;11.48;2.90;;;16.10;99.90;;;;;;5051426;28;20028;-69
2021/08/29 01:16:57;;;;;;;10.90;2.58;;;16.10;99.90;;;;;;5050549;28;20413;-69
2021/08/29 01:19:37;;;;;;;9.07;2.33;;;16.10;99.90;;;;;;5048958;28;20021;-69
2021/08/29 01:22:04;;;;;;;6.43;3.00;;;16.10;99.90;;;;;;5051226;28;20080;-69
2021/08/29 01:24:31;;;;;;;4.25;2.45;;;16.20;99.90;;;;;;5051001;28;20029;-69
2021/08/29 01:27:08;;;;;;;6.90;3.08;;;16.20;99.90;;;;;;5051091;28;20025;-69
2021/08/29 01:29:34;;;;;;;4.80;2.63;;;16.20;99.90;;;;;;5046607;28;20392;-69
2021/08/29 01:32:03;;;;;;;8.20;3.45;;;16.10;99.90;;;;;;5051352;28;20508;-69
2021/08/29 01:34:30;;;;;;;8.18;3.22;;;16.10;99.90;;;;;;5050836;28;20412;-69
2021/08/29 01:36:57;;;;;;;12.55;2.97;;;16.20;99.90;;;;;;5048114;28;20064;-70
2021/08/29 01:39:23;;;;;;;;;;;16.20;99.90;;;;;;5049098;28;20092;-70
2021/08/29 01:41:50;;;;;;;5.70;2.33;;;16.20;99.90;;;;;;5051077;28;20301;-69
2021/08/29 01:44:21;;;;;;;8.10;3.72;;;16.20;99.90;;;;;;5049449;28;20040;-70
2021/08/29 01:46:47;;;;;;;5.97;2.80;;;16.20;99.90;;;;;;5050218;28;20033;-69
2021/08/29 01:49:13;;;;;;;7.10;3.00;;;16.10;99.90;;;;;;5053985;28;20029;-69
2021/08/29 01:51:40;;;;;;;5.95;2.38;;;16.10;99.90;;;;;;5049908;28;20677;-69
2021/08/29 01:54:06;;;;;;;6.82;2.83;;;16.10;99.90;;;;;;5054881;28;20025;-70
2021/08/29 01:56:51;;;;;;;8.38;3.17;;;16.10;99.90;;;;;;5052762;28;20036;-70
2021/08/29 01:59:17;;;;;;;9.82;2.85;;;16.10;99.90;;;;;;5049104;28;20107;-71
2021/08/29 02:01:43;;;;;;;8.82;3.00;;;16.00;99.90;;;;;;5052958;28;20516;-68
2021/08/29 02:04:10;;;;;;;11.07;2.85;;;16.00;99.90;;;;;;5053881;28;20041;-68
2021/08/29 02:06:42;;;;;;;7.88;3.50;;;16.00;99.90;;;;;;5045983;28;20716;-69
2021/08/29 02:09:09;;;;;;;10.73;2.92;;;16.00;99.90;;;;;;5054605;28;20025;-69
2021/08/29 02:11:40;;;;;;;;;;;16.00;99.90;;;;;;5054807;28;20044;-69
2021/08/29 02:14:14;;;;;;;13.75;2.80;;;16.00;99.90;;;;;;5054440;28;19908;-69
2021/08/29 02:16:42;;;;;;;6.40;2.90;;;16.00;99.90;;;;;;5052462;28;20065;-70
2021/08/29 02:19:18;;;;;;;4.57;2.78;;;16.00;99.90;;;;;;5053467;28;20033;-72
2021/08/29 02:21:45;;;;;;;6.55;2.38;;;16.00;99.90;;;;;;5050668;28;20052;-70
2021/08/29 02:24:10;;;;;;;5.97;2.25;;;16.00;99.90;;;;;;5055791;28;20040;-70
2021/08/29 02:26:38;;;;;;;11.40;4.07;;;16.10;99.90;;;;;;5054960;28;20032;-70
2021/08/29 02:29:04;;;;;;;;;;;16.10;99.90;;;;;;5053765;28;20023;-70
2021/08/29 02:31:29;;;;;;;14.60;2.95;;;16.10;99.90;;;;;;5055176;28;20003;-69
2021/08/29 02:33:55;;;;;;;12.82;2.70;;;16.10;99.90;;;;;;5053502;28;20386;-70
2021/08/29 02:36:21;;;;;;;7.45;3.05;;;16.10;99.90;;;;;;5053621;28;20553;-69
2021/08/29 02:38:49;;;;;;;4.63;2.35;;;16.00;99.90;;;;;;5050485;28;20037;-70
2021/08/29 02:41:17;;;;;;;7.43;2.70;;;16.00;99.90;;;;;;5052445;28;20025;-68
2021/08/29 02:43:45;;;;;;;9.45;2.75;;;16.00;99.90;;;;;;5053791;28;20036;-68
2021/08/29 02:46:11;;;;;;;4.65;2.28;;;16.00;99.90;;;;;;5053283;28;20046;-69
2021/08/29 02:48:38;;;;;;;6.20;2.70;;;15.90;99.90;;;;;;5050042;28;20021;-69
2021/08/29 02:51:04;;;;;;;9.70;2.92;;;15.90;99.90;;;;;;5053662;28;20082;-68
2021/08/29 02:53:30;;;;;;;5.22;3.33;;;15.90;99.90;;;;;;5052322;28;20111;-71
2021/08/29 02:55:59;;;;;;;10.63;3.15;;;15.80;99.90;;;;;;5053222;28;20108;-69
2021/08/29 02:58:26;;;;;;;4.85;2.42;;;15.90;99.90;;;;;;5039775;28;20059;-68
2021/08/29 03:00:52;;;;;;;4.65;2.08;;;15.90;99.90;;;;;;5050785;28;21216;-68
2021/08/29 03:03:18;;;;;;;11.10;3.25;;;15.90;99.90;;;;;;5053716;28;20396;-69
2021/08/29 03:05:44;;;;;;;5.40;2.67;;;15.80;99.90;;;;;;5052893;28;20044;-69
2021/08/29 03:08:10;;;;;;;14.38;3.25;;;15.80;99.90;;;;;;5052270;28;20029;-69
2021/08/29 03:10:35;;;;;;;6.07;2.90;;;15.90;99.90;;;;;;5043066;28;20033;-67
2021/08/29 03:13:03;;;;;;;8.30;3.53;;;15.80;99.90;;;;;;5044066;28;20056;-68
2021/08/29 03:15:32;;;;;;;5.30;2.92;;;15.80;99.90;;;;;;5052111;28;20492;-68
2021/08/29 03:17:58;;;;;;;4.70;2.85;;;15.80;99.90;;;;;;5049480;28;20059;-68
2021/08/29 03:20:24;;;;;;;5.60;2.80;;;15.80;99.90;;;;;;5053064;28;20060;-70
2021/08/29 03:22:50;;;;;;;5.72;2.30;;;15.80;99.90;;;;;;5052932;28;20041;-68
2021/08/29 03:25:16;;;;;;;4.90;2.50;;;15.80;99.90;;;;;;5036794;28;20063;-68
2021/08/29 03:27:42;;;;;;;8.40;3.83;;;15.80;99.90;;;;;;5053069;28;20036;-68
2021/08/29 03:30:09;;;;;;;7.30;2.70;;;15.70;99.90;;;;;;5052738;28;20025;-68
2021/08/29 03:32:35;;;;;;;4.57;2.53;;;15.80;99.90;;;;;;5051481;28;20102;-69
2021/08/29 03:35:02;;;;;;;4.40;2.47;;;15.90;99.90;;;;;;5052403;28;20025;-71
2021/08/29 03:37:28;;;;;;;9.80;2.80;;;15.80;99.90;;;;;;5052109;28;20083;-68
2021/08/29 03:39:56;;;;;;;8.05;2.08;;;15.80;99.90;;;;;;5051240;28;20037;-70
2021/08/29 03:42:23;;;;;;;6.38;2.28;;;15.80;99.90;;;;;;5051575;28;20025;-69
2021/08/29 03:44:49;;;;;;;8.10;2.83;;;15.70;99.90;;;;;;5049817;28;20040;-69
2021/08/29 03:47:15;;;;;;;8.30;2.40;;;15.80;99.90;;;;;;5051879;28;20029;-70
2021/08/29 03:49:41;;;;;;;5.90;2.50;;;15.90;99.90;;;;;;5050934;28;20036;-69
2021/08/29 03:52:08;;;;;;;11.43;5.05;;;15.80;99.90;;;;;;5052113;28;20025;-70
2021/08/29 03:54:34;;;;;;;4.15;2.55;;;15.80;99.90;;;;;;5052760;28;20028;-69
2021/08/29 03:57:01;;;;;;;6.30;2.78;;;15.80;99.90;;;;;;5051761;28;20071;-70
2021/08/29 03:59:29;;;;;;;7.20;2.22;;;15.90;99.90;;;;;;5051340;28;20029;-69
2021/08/29 04:01:55;;;;;;;7.63;2.13;;;15.90;99.90;;;;;;5050451;28;20123;-69
2021/08/29 04:04:20;;;;;;;13.13;2.53;;;15.80;99.90;;;;;;5051967;28;20100;-69
2021/08/29 04:06:48;;;;;;;10.90;2.47;;;15.90;99.90;;;;;;5051877;28;20029;-69
2021/08/29 04:09:14;;;;;;;;;;;15.90;99.90;;;;;;5046786;28;20109;-69
2021/08/29 04:11:43;;;;;;;9.40;2.97;;;15.80;99.90;;;;;;5032942;28;20003;-70
2021/08/29 04:14:12;;;;;;;12.98;2.40;;;15.90;99.90;;;;;;5049063;28;20374;-70
2021/08/29 04:16:39;;;;;;;5.78;2.15;;;15.90;99.90;;;;;;5049206;28;20049;-69
2021/08/29 04:19:05;;;;;;;6.80;1.95;;;15.90;99.90;;;;;;5051905;28;20108;-69
2021/08/29 04:21:32;;;;;;;6.97;1.98;;;15.90;99.90;;;;;;5051932;28;20028;-69
2021/08/29 04:23:58;;;;;;;6.90;2.30;;;15.90;99.90;;;;;;5048668;28;20032;-69
2021/08/29 04:26:24;;;;;;;5.78;2.80;;;15.90;99.90;;;;;;5051819;28;20032;-69
2021/08/29 04:28:50;;;;;;;10.43;2.15;;;15.90;99.90;;;;;;5051799;28;20079;-70
2021/08/29 04:31:23;;;;;;;14.63;3.33;;;15.90;99.90;;;;;;5050093;28;20025;-69
2021/08/29 04:33:49;;;;;;;11.00;3.50;;;15.90;99.90;;;;;;5051664;28;20096;-69
2021/08/29 04:36:15;;;;;;;17.13;2.40;;;15.80;99.90;;;;;;5051144;28;20028;-70
2021/08/29 04:38:40;;;;;;;9.30;2.13;;;15.80;99.90;;;;;;5051156;28;20108;-70
2021/08/29 04:41:06;;;;;;;9.70;3.10;;;15.80;99.90;;;;;;5032319;28;20040;-69
2021/08/29 04:43:31;;;;;;;14.63;2.67;;;15.90;99.90;;;;;;5046724;28;20054;-69
2021/08/29 04:45:57;;;;;;;8.90;2.45;;;15.90;99.90;;;;;;5051210;28;20033;-69
2021/08/29 04:48:23;;;;;;;7.82;2.40;;;15.90;99.90;;;;;;5050582;28;20158;-68
2021/08/29 04:50:49;;;;;;;8.18;2.45;;;15.90;99.90;;;;;;5043183;28;20025;-68
2021/08/29 04:53:15;;;;;;;7.20;2.53;;;15.90;99.90;;;;;;5051516;28;20043;-68
2021/08/29 04:55:41;;;;;;;11.90;3.50;;;15.90;99.90;;;;;;5050932;28;20056;-69
2021/08/29 04:58:07;;;;;;;10.45;2.35;;;15.90;99.90;;;;;;5051388;28;20122;-69
2021/08/29 05:00:33;;;;;;;12.75;2.42;;;16.00;99.90;;;;;;5049497;28;20171;-68
2021/08/29 05:02:58;;;;;;;10.57;2.42;;;15.90;99.90;;;;;;5051086;28;20385;-68
2021/08/29 05:05:24;;;;;;;7.43;2.30;;;16.00;99.90;;;;;;5051534;28;20058;-69
2021/08/29 05:07:49;;;;;;;5.47;2.28;;;16.00;99.90;;;;;;5046635;28;20032;-69
2021/08/29 05:10:15;;;;;;;14.73;2.55;;;15.90;99.90;;;;;;5051291;28;20028;-70
2021/08/29 05:12:41;;;;;;;8.43;1.88;;;15.90;99.90;;;;;;5051532;28;20029;-68
2021/08/29 05:15:07;;;;;;;10.32;2.17;;;15.90;99.90;;;;;;5050920;28;20014;-70
2021/08/29 05:17:32;;;;;;;6.65;2.10;;;15.90;99.90;;;;;;5044810;28;20401;-68
2021/08/29 05:19:58;;;;;;;16.95;2.65;;;15.90;99.90;;;;;;5049195;28;20083;-69
2021/08/29 05:22:24;;;;;;;9.63;2.33;;;15.90;99.90;;;;;;5053490;28;20111;-69
2021/08/29 05:24:49;;;;;;;13.95;2.88;;;15.90;99.90;;;;;;5054133;28;20037;-70
2021/08/29 05:27:15;;;;;;;7.90;2.53;;;15.90;99.90;;;;;;5050508;28;20543;-72
2021/08/29 05:29:40;;;;;;;15.55;2.60;;;16.00;99.90;;;;;;5055504;28;20034;-70
2021/08/29 05:32:06;;;;;;;6.13;2.55;;;16.00;99.90;;;;;;5056180;28;20031;-69
2021/08/29 05:34:32;;;;;;;8.80;1.85;;;16.00;99.90;;;;;;5055444;28;20051;-70
2021/08/29 05:36:58;;;;;;;10.93;2.50;;;15.90;99.90;;;;;;5046008;28;20434;-70
2021/08/29 05:39:24;;;;;;;14.07;3.67;;;15.90;99.90;;;;;;5055670;28;20029;-70
2021/08/29 05:41:49;;;;;;;7.53;1.92;;;15.90;99.90;;;;;;5054662;28;20045;-69
2021/08/29 05:44:16;;;;;;;13.27;2.40;;;16.00;99.90;;;;;;5055291;28;20111;-72
2021/08/29 05:46:42;;;;;;;15.18;2.60;;;15.90;99.90;;;;;;5053083;28;20025;-69
2021/08/29 05:49:07;;;;;;;15.90;2.53;;;15.90;99.90;;;;;;5055299;28;20481;-69
2021/08/29 05:51:33;;;;;;;5.90;2.28;;;16.00;99.90;;;;;;5055143;28;20017;-68
2021/08/29 05:53:58;;;;;;;10.18;2.40;;;16.00;99.90;;;;;;5049577;28;20031;-69
2021/08/29 05:56:24;;;;;;;9.75;1.95;;;16.00;99.90;;;;;;5054574;28;20413;-72
2021/08/29 05:58:50;;;;;;;10.07;1.88;;;16.00;99.90;;;;;;5054659;28;20036;-69
2021/08/29 06:01:16;;;;;;;9.68;2.28;;;16.00;99.90;;;;;;5054461;28;20031;-70
2021/08/29 06:03:42;;;;;;;9.80;2.47;;;16.00;99.90;;;;;;5052818;28;20133;-69
2021/08/29 06:06:08;;;;;;;8.20;2.67;;;16.00;99.90;;;;;;5054452;28;20021;-68
2021/08/29 06:08:33;;;;;;;12.50;2.55;;;16.00;99.90;;;;;;5054180;28;20017;-68
2021/08/29 06:10:59;;;;;;;3.78;1.90;;;16.00;99.90;;;;;;5054603;28;20056;-69
2021/08/29 06:13:25;;;;;;;11.23;3.78;;;16.00;99.90;;;;;;5053694;28;20388;-69
2021/08/29 06:15:50;;;;;;;12.88;2.08;;;16.10;99.90;;;;;;5054230;28;20535;-70
2021/08/29 06:18:16;;;;;;;5.90;1.98;;;16.10;99.90;;;;;;5051297;28;20024;-70
2021/08/29 06:20:42;;;;;;;8.30;2.15;;;16.10;99.90;;;;;;5054252;28;20078;-69
2021/08/29 06:23:10;;;;;;;10.75;2.20;;;16.10;99.90;;;;;;5053845;28;20036;-70
2021/08/29 06:25:35;;;;;;;14.23;3.15;;;16.10;99.90;;;;;;5052798;28;20036;-69
2021/08/29 06:28:02;;;;;;;7.47;2.08;;;16.10;99.90;;;;;;5047350;28;20271;-70
2021/08/29 06:30:28;;;;;;;8.07;1.90;;;16.00;99.90;;;;;;5052502;28;20095;-70
2021/08/29 06:32:54;;;;;;;9.80;2.17;;;16.10;99.90;;;;;;5053454;28;20032;-69
2021/08/29 06:35:19;;;;;;;9.05;2.13;;;16.20;99.90;;;;;;5053026;28;20021;-71
2021/08/29 06:37:45;;;;;;;10.38;1.88;;;16.10;99.90;;;;;;5053346;28;20064;-70
2021/08/29 06:40:11;;;;;;;13.48;2.33;;;16.10;99.90;;;;;;5053818;28;20032;-69
2021/08/29 06:42:37;;;;;;;8.55;2.03;;;16.10;99.90;;;;;;5053726;28;20103;-68
2021/08/29 06:45:02;;;;;;;7.90;1.98;;;16.10;99.90;;;;;;5054090;28;20052;-71
2021/08/29 06:47:28;;;;;;;4.43;2.08;;;16.20;99.90;;;;;;5053652;28;20036;-70
2021/08/29 06:49:53;;;;;;;11.68;2.20;;;16.10;99.90;;;;;;5052648;28;20025;-72
2021/08/29 06:52:19;;;;;;;7.13;2.25;;;16.10;99.90;;;;;;5053588;28;20029;-69
2021/08/29 06:54:44;;;;;;;11.50;1.88;;;16.20;99.90;;;;;;5053167;28;20044;-69
2021/08/29 06:57:10;;;;;;;6.63;2.30;;;16.10;99.90;;;;;;5052687;28;20029;-70
2021/08/29 06:59:36;;;;;;;4.72;2.13;;;16.20;99.90;;;;;;5053443;28;20028;-69
2021/08/29 07:02:01;;;;;;;10.68;3.08;;;16.20;99.90;;;;;;5052220;28;20083;-70
2021/08/29 07:04:27;;;;;;;11.60;2.17;;;16.20;99.90;;;;;;5052310;28;20041;-71
2021/08/29 07:06:53;;;;;;;14.05;2.72;;;16.30;99.90;;;;;;5053140;28;20108;-70
2021/08/29 07:09:18;;;;;;;5.28;1.95;;;16.20;99.90;;;;;;5053127;28;20024;-70
2021/08/29 07:11:44;;;;;;;7.95;2.03;;;16.30;99.90;;;;;;5053159;28;20079;-69
2021/08/29 07:14:09;;;;;;;4.32;1.60;;;16.30;99.90;;;;;;5051935;28;20048;-69
2021/08/29 07:16:35;;;;;;;12.45;1.98;;;16.40;99.90;;;;;;5053591;28;20048;-69
2021/08/29 07:19:00;;;;;;;9.75;2.63;;;16.30;99.90;;;;;;5052227;28;20447;-69
2021/08/29 07:21:26;;;;;;;7.60;1.50;;;16.30;99.90;;;;;;5053168;28;20032;-70
2021/08/29 07:23:52;;;;;;;10.50;2.17;;;16.30;99.90;;;;;;5052827;28;20485;-69
2021/08/29 07:26:18;;;;;;;13.30;2.45;;;16.40;99.90;;;;;;5053125;28;20139;-70
2021/08/29 07:28:44;;;;;;;7.80;1.85;;;16.40;99.90;;;;;;5052897;28;20535;-69
2021/08/29 07:31:11;;;;;;;12.32;2.97;;;16.40;99.90;;;;;;5051406;28;20111;-70
2021/08/29 07:33:37;;;;;;;9.40;2.00;;;16.40;99.90;;;;;;5048744;28;20028;-70
2021/08/29 07:36:03;;;;;;;10.45;2.17;;;16.40;99.90;;;;;;5051997;28;20044;-70
2021/08/29 07:38:29;;;;;;;7.47;2.25;;;16.50;99.90;;;;;;5052689;28;20583;-70
2021/08/29 07:40:55;;;;;;;9.20;2.00;;;16.50;99.90;;;;;;5052477;28;20029;-69
2021/08/29 07:43:20;;;;;;;13.68;3.80;;;16.50;99.90;;;;;;5052211;28;20036;-70
2021/08/29 07:45:46;;;;;;;9.82;2.05;;;16.50;99.90;;;;;;5051338;28;20388;-69
2021/08/29 07:48:11;;;;;;;8.57;2.13;;;16.50;99.90;;;;;;5051394;28;20102;-70
2021/08/29 07:50:37;;;;;;;8.75;1.88;;;16.60;99.90;;;;;;5051530;28;20412;-70
2021/08/29 07:53:03;;;;;;;8.48;1.95;;;16.50;99.90;;;;;;5051257;28;20033;-70
2021/08/29 07:55:29;;;;;;;14.32;2.53;;;16.50;99.90;;;;;;5051692;28;20025;-70
2021/08/29 07:57:55;;;;;;;4.88;2.85;;;16.50;99.90;;;;;;5051058;28;20067;-72
2021/08/29 08:00:20;;;;;;;9.38;2.20;;;16.50;99.90;;;;;;5051784;28;20025;-69
2021/08/29 08:02:46;;;;;;;11.32;2.30;;;16.50;99.90;;;;;;5051916;28;20082;-71
2021/08/29 08:05:12;;;;;;;7.18;2.50;;;16.50;99.90;;;;;;5050236;28;20488;-70
2021/08/29 08:07:38;;;;;;;13.95;3.00;;;16.50;99.90;;;;;;5050160;28;20083;-70
2021/08/29 08:10:05;;;;;;;17.38;3.85;;;16.60;99.90;;;;;;5051439;28;20031;-70
2021/08/29 08:12:31;;;;;;;8.15;2.63;;;16.50;99.90;;;;;;5048021;28;20032;-73
2021/08/29 08:14:56;;;;;;;21.42;2.30;;;16.50;99.90;;;;;;5052772;28;20041;-73
2021/08/29 08:17:22;;;;;;;15.68;2.22;;;16.60;99.90;;;;;;5052210;28;20076;-72
2021/08/29 08:19:48;;;;;;;18.80;3.63;;;16.60;99.90;;;;;;5052952;28;20036;-71
2021/08/29 08:22:14;;;;;;;6.90;1.80;;;16.60;99.90;;;;;;5054445;28;20401;-71
2021/08/29 08:24:39;;;;;;;8.90;2.33;;;16.50;99.90;;;;;;5050952;28;20397;-71
2021/08/29 08:27:05;;;;;;;8.10;2.60;;;16.60;99.90;;;;;;5052177;28;20063;-72
2021/08/29 08:29:31;;;;;;;6.20;2.25;;;16.60;99.90;;;;;;5049403;28;20069;-73
2021/08/29 08:31:56;;;;;;;16.55;2.47;;;16.70;99.90;;;;;;5058468;28;20025;-74
2021/08/29 08:34:22;;;;;;;8.38;2.13;;;16.60;99.90;;;;;;5052885;28;20386;-71
2021/08/29 08:36:48;;;;;;;6.25;2.20;;;16.70;99.90;;;;;;5058326;28;20041;-72
2021/08/29 08:39:13;;;;;;;10.02;2.30;;;16.70;99.90;;;;;;5050006;28;20140;-73
2021/08/29 08:41:39;;;;;;;15.95;2.42;;;16.80;99.90;;;;;;5052221;28;20091;-72
2021/08/29 08:44:06;;;;;;;7.65;2.53;;;16.70;99.90;;;;;;5051388;28;20025;-73
2021/08/29 08:46:32;;;;;;;5.88;1.80;;;16.70;99.90;;;;;;5046829;28;20029;-72
2021/08/29 08:49:01;;;;;;;11.57;1.85;;;16.80;99.90;;;;;;5051175;28;20048;-73
2021/08/29 08:51:29;;;;;;;9.27;2.72;;;16.80;99.90;;;;;;5050343;28;20013;-71
2021/08/29 08:53:58;;;;;;;9.15;2.55;;;16.70;99.90;;;;;;5051232;28;20082;-70
2021/08/29 08:56:24;;;;;;;11.10;2.05;;;16.70;99.90;;;;;;5051451;28;20475;-71
2021/08/29 08:58:55;;;;;;;8.15;2.42;;;16.60;99.90;;;;;;5051771;28;20125;-70
2021/08/29 09:01:21;;;;;;;14.85;2.67;;;16.70;99.90;;;;;;5050955;28;20024;-71
2021/08/29 09:03:47;;;;;;;9.88;2.13;;;16.70;99.90;;;;;;5051096;28;20033;-69
2021/08/29 09:06:13;;;;;;;16.58;2.05;;;16.60;99.90;;;;;;5051516;28;20057;-69
2021/08/29 09:08:39;;;;;;;6.63;1.70;;;16.60;99.90;;;;;;5051116;28;20514;-69
2021/08/29 09:11:05;;;;;;;19.15;3.92;;;16.60;99.90;;;;;;5050130;28;20067;-69
2021/08/29 09:13:46;;;;;;;10.45;2.50;;;16.60;99.90;;;;;;5051632;28;20017;-70
2021/08/29 09:16:16;;;;;;;6.82;1.75;;;16.60;99.90;;;;;;5036100;28;20102;-71
2021/08/29 09:18:51;;;;;;;11.43;1.75;;;16.70;99.90;;;;;;5051237;28;20143;-70
2021/08/29 09:21:40;;;;;;;9.32;2.25;;;16.70;99.90;;;;;;5049245;28;20049;-70
2021/08/29 09:24:11;;;;;;;14.90;2.25;;;16.70;99.90;;;;;;5051309;28;20041;-70
2021/08/29 09:26:42;;;;;;;10.07;3.53;;;16.70;99.90;;;;;;5050727;28;20392;-71
2021/08/29 09:29:15;;;;;;;10.48;2.47;;;16.80;99.90;;;;;;5050078;28;20450;-70
2021/08/29 09:31:43;;;;;;;17.05;3.97;;;16.70;99.90;;;;;;5048197;28;20033;-70
2021/08/29 09:34:09;;;;;;;14.02;2.55;;;16.80;99.90;;;;;;5050276;28;20079;-71
2021/08/29 09:36:38;;;;;;;9.02;1.88;;;16.90;99.90;;;;;;5049696;28;20045;-72
2021/08/29 09:39:18;;;;;;;7.80;2.35;;;16.80;99.90;;;;;;5049899;28;20029;-71
2021/08/29 09:41:45;;;;;;;8.00;2.20;;;16.80;99.90;;;;;;5050841;28;20334;-71
2021/08/29 09:44:17;;;;;;;9.27;2.00;;;16.80;99.90;;;;;;5051135;28;20116;-70
2021/08/29 09:47:00;;;;;;;6.32;1.95;;;16.90;99.90;;;;;;5050526;28;20072;-70
2021/08/29 09:49:30;;;;;;;5.55;1.70;;;16.90;99.90;;;;;;5050051;28;20493;-71
2021/08/29 09:51:59;;;;;;;12.20;2.35;;;17.00;99.90;;;;;;5049367;28;20028;-71
2021/08/29 09:54:41;;;;;;;9.48;2.33;;;16.90;99.90;;;;;;5050834;28;20086;-70
2021/08/29 09:57:12;;;;;;;13.10;2.30;;;16.90;99.90;;;;;;5050889;28;20166;-70
2021/08/29 09:59:50;;;;;;;13.52;2.17;;;16.90;99.90;;;;;;5051072;28;20028;-71
2021/08/29 10:02:22;;;;;;;8.27;1.55;;;16.90;99.90;;;;;;5052639;28;20107;-70
2021/08/29 10:04:48;;;;;;;10.27;1.90;;;16.90;99.90;;;;;;5050025;28;20404;-70
2021/08/29 10:07:17;;;;;;;7.25;2.05;;;16.90;99.90;;;;;;5050696;28;20033;-70
2021/08/29 10:09:44;;;;;;;9.80;2.50;;;16.70;99.90;;;;;;5053147;28;20496;-70
2021/08/29 10:12:10;;;;;;;10.45;1.48;;;16.80;99.90;;;;;;5054382;28;20078;-71
2021/08/29 10:14:37;;;;;;;10.18;2.88;;;16.80;99.90;;;;;;5054412;28;20033;-70
2021/08/29 10:17:04;;;;;;;19.65;2.28;;;16.80;99.90;;;;;;5053936;28;20496;-70
2021/08/29 10:19:30;;;;;;;11.57;2.10;;;16.80;99.90;;;;;;5054302;28;20048;-70
2021/08/29 10:21:58;;;;;;;8.75;1.83;;;16.80;99.90;;;;;;5054546;28;20496;-71
2021/08/29 10:24:30;;;;;;;14.32;2.22;;;16.80;99.90;;;;;;5052772;28;20551;-71
2021/08/29 10:27:02;;;;;;;15.07;1.95;;;16.80;99.90;;;;;;5053132;28;20029;-70
2021/08/29 10:29:33;;;;;;;9.65;1.92;;;16.80;99.90;;;;;;5053949;28;20025;-71
2021/08/29 10:32:03;;;;;;;8.23;2.97;;;16.80;99.90;;;;;;5033169;28;20028;-70
2021/08/29 10:34:31;;;;;;;11.95;2.42;;;16.90;99.90;;;;;;5050314;28;20037;-69
2021/08/29 10:36:57;;;;;;;12.43;2.40;;;16.80;99.90;;;;;;5052804;28;20124;-72
2021/08/29 10:39:23;;;;;;;9.13;2.92;;;16.80;99.90;;;;;;5054161;28;20033;-71
2021/08/29 10:41:52;;;;;;;8.45;1.65;;;16.90;99.90;;;;;;5053702;28;20509;-71
2021/08/29 10:44:18;;;;;;;14.60;2.95;;;16.90;99.90;;;;;;5053318;28;20122;-71
2021/08/29 10:46:45;;;;;;;9.98;3.17;;;16.90;99.90;;;;;;5052065;28;20047;-70
2021/08/29 10:49:13;;;;;;;10.77;2.28;;;16.90;99.90;;;;;;5053772;28;20033;-70
2021/08/29 10:51:40;;;;;;;9.90;1.73;;;16.90;99.90;;;;;;5053077;28;20029;-71
2021/08/29 10:54:14;;;;;;;10.55;2.13;;;16.90;99.90;;;;;;5053529;28;20032;-71
2021/08/29 10:56:41;;;;;;;10.45;2.83;;;16.90;99.90;;;;;;5050156;28;20040;-70
2021/08/29 10:59:10;;;;;;;12.18;1.83;;;17.00;99.90;;;;;;5052750;28;20428;-72
2021/08/29 11:01:39;;;;;;;8.90;2.25;;;17.00;99.90;;;;;;5053704;28;20032;-69
2021/08/29 11:04:26;;;;;;;28.45;3.38;;;17.00;99.90;;;;;;5052729;28;20028;-69
2021/08/29 11:06:52;;;;;;;;;;;17.00;99.90;;;;;;5052957;28;20497;-69
2021/08/29 11:11:59;;;;;;;13.38;2.35;;;17.00;99.90;;;;;;5050038;28;20025;-70
2021/08/29 11:14:49;;;;;;;7.03;2.40;;;16.90;99.90;;;;;;5051596;28;20029;-72
2021/08/29 11:17:29;;;;;;;12.20;2.50;;;17.00;99.90;;;;;;5050409;28;20084;-70
2021/08/29 11:20:13;;;;;;;10.65;2.40;;;17.00;99.90;;;;;;5046660;28;20141;-69
2021/08/29 11:22:40;;;;;;;10.80;2.40;;;17.00;99.90;;;;;;5053527;28;20040;-69
2021/08/29 11:25:14;;;;;;;12.40;3.57;;;16.90;99.90;;;;;;5052799;28;20176;-69
2021/08/29 11:27:49;;;;;;;12.18;2.80;;;16.90;99.90;;;;;;5053127;28;20029;-70
2021/08/29 11:30:21;;;;;;;10.57;2.47;;;17.00;99.90;;;;;;5051419;28;20044;-69
2021/08/29 11:33:03;;;;;;;9.38;2.45;;;17.00;99.90;;;;;;5053322;28;20393;-71
2021/08/29 11:35:44;;;;;;;14.50;3.58;;;17.00;99.90;;;;;;5053041;28;20029;-69
2021/08/29 11:38:14;;;;;;;9.88;2.70;;;17.10;99.90;;;;;;5051841;28;20469;-69
2021/08/29 11:41:00;;;;;;;8.48;2.50;;;17.10;99.90;;;;;;5041809;28;20025;-69
2021/08/29 11:43:33;;;;;;;16.55;3.28;;;17.20;99.90;;;;;;5052359;28;20021;-69
2021/08/29 11:46:20;;;;;;;9.18;3.63;;;17.10;99.90;;;;;;5051496;28;20501;-70
2021/08/29 11:48:57;;;;;;;12.07;2.28;;;17.10;99.90;;;;;;5052725;28;20028;-70
2021/08/29 11:51:33;;;;;;;12.50;2.80;;;17.10;99.90;;;;;;5034320;28;20030;-69
2021/08/29 11:54:01;;;;;;;9.50;2.45;;;17.10;99.90;;;;;;5034388;28;20064;-69
2021/08/29 11:56:29;;;;;;;11.63;3.15;;;17.10;99.90;;;;;;5031714;28;20038;-70
2021/08/29 11:58:56;;;;;;;11.25;2.53;;;17.10;99.90;;;;;;5031326;28;20041;-69
2021/08/29 12:01:23;;;;;;;6.70;2.22;;;17.00;99.90;;;;;;5032809;28;20036;-69
2021/08/29 12:03:52;;;;;;;11.65;3.08;;;17.00;99.90;;;;;;5032674;28;20507;-70
2021/08/29 12:06:33;;;;;;;9.57;2.30;;;17.00;99.90;;;;;;5032630;28;20056;-69
2021/08/29 12:09:23;;;;;;;10.90;2.63;;;17.00;99.90;;;;;;5045866;28;20025;-70
2021/08/29 12:11:51;;;;;;;7.63;1.90;;;16.90;99.90;;;;;;5052623;28;20468;-71
2021/08/29 12:14:16;;;;;;;;;;;16.80;99.90;;;;;;5052898;28;20086;-70
2021/08/29 12:16:48;;;;;;;12.65;2.90;;;16.60;99.90;;;;;;5052320;28;19921;-69
2021/08/29 12:19:15;;;;;;;6.75;2.38;;;16.60;99.90;;;;;;5052447;28;20021;-70
2021/08/29 12:21:43;;;;;;;10.48;2.95;;;16.50;99.90;;;;;;5052121;28;20032;-71
2021/08/29 12:24:09;;;;;;;;;;;16.60;99.90;;;;;;5052742;28;20025;-70
2021/08/29 12:26:37;;;;;;;7.95;2.10;;;16.50;99.90;;;;;;5052231;28;19964;-71
2021/08/29 12:29:06;;;;;;;14.48;2.83;;;16.50;99.90;;;;;;5052171;28;20024;-71
2021/08/29 12:31:44;;;;;;;14.55;2.90;;;16.40;99.90;;;;;;5051586;28;20036;-71
2021/08/29 12:34:10;;;;;;;10.68;3.10;;;16.40;99.90;;;;;;5050635;28;20044;-72
2021/08/29 12:36:36;;;;;;;11.07;3.17;;;16.40;99.90;;;;;;5051603;28;20110;-71
2021/08/29 12:39:10;;;;;;;10.75;3.00;;;16.40;99.90;;;;;;5050693;28;20055;-71
2021/08/29 12:41:37;;;;;;;12.40;4.07;;;16.40;99.90;;;;;;5051684;28;20025;-72
2021/08/29 12:44:06;;;;;;;6.25;2.65;;;16.40;99.90;;;;;;5051955;28;20496;-70
2021/08/29 12:46:32;;;;;;;14.52;3.80;;;16.30;99.90;;;;;;5051843;28;20397;-71
2021/08/29 12:48:58;;;;;;;10.93;3.25;;;16.40;99.90;;;;;;5051823;28;20039;-73
2021/08/29 12:51:24;;;;;;;8.02;3.13;;;16.40;99.90;;;;;;5050560;28;20028;-70